Caputa, SD (57725)

12:29 PM MDT on July 24, 2016 (GMT -0600)
Rapid City | | Change Station

Elev 3166 ft 44.05 °N, 103.06 °W | Updated 37 minutes ago

Overcast
Overcast
78 °F
Feels Like 78 °F
N
5
Wind Variable Wind from SSE

Today
High -- | Low -- °F
--% Chance of Precip.
Yesterday
High -- | Low -- °F
Precip. -- in
Pressure 30.09 in
Visibility 10.0 miles
Clouds Overcast 10000 ft
Dew Point 48 °F
Humidity 35%
Rainfall 0.08 in
Snow Depth Not available.
5:32 AM 8:23 PM
Waning Gibbous, 74% visible
METAR KRAP 241752Z 16004KT 10SM OVC100 26/09 A3014 RMK AO2 SLP187 T02560089 10261 20161 58006
Pressure 30.09 in
Visibility 10.0 miles
Clouds Overcast 10000 ft
Dew Point 48 °F
Humidity 35%
Rainfall 0.08 in
Snow Depth Not available.
5:32 AM 8:23 PM
Waning Gibbous, 74% visible
METAR KRAP 241752Z 16004KT 10SM OVC100 26/09 A3014 RMK AO2 SLP187 T02560089 10261 20161 58006

10-Day Weather Forecast

Almanac

Astronomy

Jul. 24, 2016 Rise Set
Actual Time
Civil Twilight
Nautical Twilight
Astronomical Twilight
Moon
Length of Visible Light
Length of Day
Tomorrow will be .
, % of the Moon is Illuminated

Today's Extremes

State Highs State Lows

Community

WunderPhotos

Upload Photos

1,927,151 photos uploaded!

WunderBlog® & News

Nearby

Air Quality

  Air Quality AQ Index Pollutant
Not available.

Snow Depth

Station Depth Elevation

Earthquake Activity

City Distance Mag. Time & Date
Minimum magnitude displayed is 2.5.

Coastal Water Temperatures

Place Temperature

Stations

Nearby Weather Stations

Station Location Temp. Windchill Dew Point Humidity Wind Precip. Elev Updated Type
                   

Watches & Warnings

There are currently no watches in effect.